createdAt,value
2019-02-16T00:02:01.265Z,5.28
2019-02-16T00:07:09.389Z,5.04
2019-02-16T00:12:18.959Z,5.23
2019-02-16T00:17:27.317Z,5.01
2019-02-16T00:22:35.777Z,5.14
2019-02-16T00:27:43.897Z,4.93
2019-02-16T00:32:52.186Z,4.73
2019-02-16T00:38:00.432Z,4.83
2019-02-16T00:43:08.792Z,5.20
2019-02-16T00:48:16.955Z,4.80
2019-02-16T00:53:25.450Z,5.35
2019-02-16T00:58:33.534Z,4.71
2019-02-16T01:03:41.725Z,5.12
2019-02-16T01:08:55.948Z,5.24
2019-02-16T01:13:58.490Z,5.00
2019-02-16T01:19:06.629Z,5.01
2019-02-16T01:24:15.349Z,5.09
2019-02-16T01:29:23.511Z,5.63
2019-02-16T01:34:32.017Z,5.39
2019-02-16T01:39:40.197Z,5.67
2019-02-16T01:44:49.229Z,5.41
2019-02-16T01:49:57.446Z,5.81
2019-02-16T01:55:05.675Z,5.57
2019-02-16T02:00:13.817Z,5.75
2019-02-16T02:05:22.181Z,6.38
2019-02-16T02:10:30.392Z,6.09
2019-02-16T02:15:39.089Z,6.19
2019-02-16T02:20:47.246Z,6.39
2019-02-16T02:25:55.753Z,6.01
2019-02-16T02:31:03.895Z,5.61
2019-02-16T02:36:12.514Z,5.51
2019-02-16T02:41:20.630Z,5.43
2019-02-16T02:46:29.317Z,5.68
2019-02-16T02:51:37.464Z,6.19
2019-02-16T02:56:45.724Z,5.56
2019-02-16T03:01:53.873Z,5.77
2019-02-16T03:07:02.233Z,5.53
2019-02-16T03:12:10.386Z,6.17
2019-02-16T03:17:18.712Z,6.19
2019-02-16T03:22:26.853Z,5.81
2019-02-16T03:27:35.057Z,5.85
2019-02-16T03:32:43.060Z,5.86
2019-02-16T03:37:51.325Z,5.57
2019-02-16T03:42:59.474Z,6.07
2019-02-16T03:48:07.869Z,5.85
2019-02-16T03:53:16.076Z,5.93
2019-02-16T03:58:24.604Z,5.31
2019-02-16T04:03:33.961Z,5.90
2019-02-16T04:08:42.705Z,5.69
2019-02-16T04:13:50.883Z,5.57
2019-02-16T04:18:59.374Z,5.55
2019-02-16T04:24:07.595Z,5.92
2019-02-16T04:29:16.040Z,6.08
2019-02-16T04:34:24.289Z,6.14
2019-02-16T04:39:32.694Z,5.71
2019-02-16T04:44:40.981Z,5.97
2019-02-16T04:49:49.364Z,6.06
2019-02-16T04:54:57.583Z,5.64
2019-02-16T05:00:05.931Z,5.83
2019-02-16T05:05:14.401Z,6.12
2019-02-16T05:10:22.771Z,5.77
2019-02-16T05:15:31.320Z,5.57
2019-02-16T05:20:39.786Z,5.81
2019-02-16T05:25:47.916Z,6.14
2019-02-16T05:30:56.587Z,6.09
2019-02-16T05:36:04.926Z,5.83
2019-02-16T05:41:13.186Z,5.11
2019-02-16T05:46:21.529Z,5.76
2019-02-16T05:51:30.022Z,5.45
2019-02-16T05:56:38.132Z,5.48
2019-02-16T06:01:53.613Z,5.30
2019-02-16T06:06:54.204Z,5.53
2019-02-16T06:12:02.630Z,5.17
2019-02-16T06:17:10.838Z,6.06
2019-02-16T06:22:19.284Z,5.92
2019-02-16T06:27:27.478Z,5.54
2019-02-16T06:32:36.081Z,5.61
2019-02-16T06:37:44.136Z,5.69
2019-02-16T06:42:52.509Z,5.82
2019-02-16T06:48:00.943Z,5.55
2019-02-16T06:53:13.227Z,5.75
2019-02-16T06:58:16.762Z,6.82
2019-02-16T07:08:33.347Z,6.30
2019-02-16T07:13:41.605Z,5.98
2019-02-16T07:18:49.773Z,6.03
2019-02-16T07:23:58.273Z,5.69
2019-02-16T07:29:06.358Z,5.88
2019-02-16T07:39:22.737Z,5.94
2019-02-16T07:44:31.277Z,5.97
2019-02-16T07:49:39.625Z,5.72
2019-02-16T07:54:50.947Z,5.98
2019-02-16T07:59:49.106Z,6.04
2019-02-16T08:04:57.601Z,6.42
2019-02-16T08:10:06.023Z,5.86
2019-02-16T08:15:14.248Z,6.48
2019-02-16T08:20:22.426Z,6.25
2019-02-16T08:25:30.767Z,6.54
2019-02-16T08:30:38.906Z,6.45
2019-02-16T08:35:47.577Z,6.30
2019-02-16T08:40:55.751Z,6.72
2019-02-16T08:46:04.237Z,6.75
2019-02-16T08:51:12.467Z,7.19
2019-02-16T08:56:21.178Z,7.13
2019-02-16T09:01:29.980Z,7.14
2019-02-16T09:06:38.614Z,7.36
2019-02-16T09:11:47.069Z,7.27
2019-02-16T09:16:55.793Z,8.55
2019-02-16T09:22:04.137Z,7.30
2019-02-16T09:27:12.478Z,7.57
2019-02-16T09:32:20.633Z,8.10
2019-02-16T09:37:29.357Z,8.13
2019-02-16T09:42:37.413Z,7.39
2019-02-16T09:47:45.796Z,8.66
2019-02-16T09:52:54.043Z,9.01
2019-02-16T09:58:02.377Z,8.86
2019-02-16T10:03:10.596Z,9.05
2019-02-16T10:08:19.047Z,9.27
2019-02-16T10:13:27.366Z,9.27
2019-02-16T10:18:35.716Z,9.70
2019-02-16T10:23:43.912Z,10.68
2019-02-16T10:28:52.481Z,9.88
2019-02-16T10:34:00.714Z,11.09
2019-02-16T10:39:08.969Z,11.46
2019-02-16T10:44:17.294Z,11.21
2019-02-16T10:49:25.871Z,11.41
2019-02-16T10:54:34.099Z,11.57
2019-02-16T10:59:42.469Z,10.69
2019-02-16T11:04:51.710Z,11.98
2019-02-16T11:09:59.737Z,12.20
2019-02-16T11:15:07.786Z,12.26
2019-02-16T11:20:16.074Z,13.15
2019-02-16T11:25:24.284Z,13.40
2019-02-16T11:30:32.800Z,13.05
2019-02-16T11:35:41.162Z,13.34
2019-02-16T11:40:49.385Z,13.69
2019-02-16T11:45:57.603Z,14.20
2019-02-16T11:51:05.861Z,13.53
2019-02-16T11:56:14.365Z,13.75
2019-02-16T12:01:22.637Z,13.92
2019-02-16T12:06:31.370Z,13.59
2019-02-16T12:11:39.763Z,14.57
2019-02-16T12:16:48.051Z,14.33
2019-02-16T12:21:56.423Z,13.22
2019-02-16T12:27:04.590Z,14.69
2019-02-16T12:32:06.761Z,14.61
2019-02-16T12:37:14.942Z,13.51
2019-02-16T12:42:23.402Z,14.18
2019-02-16T12:47:31.514Z,14.32
2019-02-16T12:52:39.831Z,13.94
2019-02-16T12:57:48.221Z,13.70
2019-02-16T13:02:56.358Z,13.78
2019-02-16T13:08:04.617Z,13.68
2019-02-16T13:13:13.493Z,13.64
2019-02-16T13:18:22.182Z,13.47
2019-02-16T13:23:31.214Z,12.72
2019-02-16T13:28:40.531Z,12.94
2019-02-16T13:33:49.596Z,13.83
2019-02-16T13:38:58.509Z,13.44
2019-02-16T13:44:07.750Z,13.63
2019-02-16T13:49:17.084Z,13.16
2019-02-16T13:54:25.737Z,13.94
2019-02-16T13:59:34.517Z,14.16
2019-02-16T14:04:42.869Z,13.75
2019-02-16T14:09:51.210Z,14.32
2019-02-16T14:14:59.417Z,14.84
2019-02-16T14:20:07.529Z,14.17
2019-02-16T14:25:16.116Z,14.31
2019-02-16T14:30:24.831Z,14.36
2019-02-16T14:35:33.223Z,14.63
2019-02-16T14:40:41.343Z,14.97
2019-02-16T14:45:49.746Z,14.54
2019-02-16T14:50:58.286Z,14.70
2019-02-16T14:56:06.790Z,15.07
2019-02-16T15:01:19.565Z,15.06
2019-02-16T15:06:22.144Z,15.12
2019-02-16T15:11:30.304Z,15.26
2019-02-16T15:16:38.601Z,15.95
2019-02-16T15:21:46.824Z,15.54
2019-02-16T15:26:55.446Z,17.10
2019-02-16T15:32:03.482Z,17.62
2019-02-16T15:37:12.036Z,16.11
2019-02-16T15:42:20.162Z,18.23
2019-02-16T15:47:28.754Z,16.42
2019-02-16T15:52:36.758Z,16.52
2019-02-16T15:57:45.127Z,17.35
2019-02-16T16:02:53.409Z,16.59
2019-02-16T16:08:01.635Z,15.83
2019-02-16T16:13:01.969Z,16.02
2019-02-16T16:18:10.325Z,15.72
2019-02-16T16:23:18.304Z,16.37
2019-02-16T16:28:26.639Z,16.76
2019-02-16T16:33:34.781Z,16.68
2019-02-16T16:38:43.020Z,18.22
2019-02-16T16:43:51.269Z,16.93
2019-02-16T16:48:59.517Z,17.37
2019-02-16T16:54:07.674Z,17.78
2019-02-16T16:59:15.984Z,18.50
2019-02-16T17:04:24.368Z,16.82
2019-02-16T17:09:33.683Z,17.12
2019-02-16T17:14:41.705Z,26.83
2019-02-16T17:19:49.828Z,22.46
2019-02-16T17:24:57.894Z,19.57
2019-02-16T17:30:06.141Z,18.48
2019-02-16T17:35:14.385Z,17.58
2019-02-16T17:40:22.680Z,18.15
2019-02-16T17:45:30.857Z,19.03
2019-02-16T17:50:39.026Z,19.82
2019-02-16T17:55:47.330Z,21.65
2019-02-16T18:00:55.592Z,24.19
2019-02-16T18:06:03.800Z,20.93
2019-02-16T18:11:12.157Z,19.21
2019-02-16T18:16:20.319Z,18.05
2019-02-16T18:21:28.654Z,17.70
2019-02-16T18:26:36.797Z,22.57
2019-02-16T18:31:45.198Z,21.86
2019-02-16T18:36:53.639Z,25.89
2019-02-16T18:42:02.781Z,18.90
2019-02-16T18:47:12.054Z,23.07
2019-02-16T18:52:21.214Z,19.95
2019-02-16T18:57:32.069Z,19.02
2019-02-16T19:02:30.253Z,19.40
2019-02-16T19:07:39.545Z,19.90
2019-02-16T19:12:47.718Z,21.78
2019-02-16T19:17:55.945Z,26.61
2019-02-16T19:23:04.318Z,23.87
2019-02-16T19:28:12.588Z,20.01
2019-02-16T19:33:21.388Z,19.43
2019-02-16T19:38:29.388Z,18.97
2019-02-16T19:43:37.656Z,19.80
2019-02-16T19:48:45.761Z,20.99
2019-02-16T19:53:54.305Z,22.11
2019-02-16T19:59:02.732Z,20.65
2019-02-16T20:04:10.939Z,39.33
2019-02-16T20:09:19.202Z,32.47
2019-02-16T20:14:27.308Z,21.44
2019-02-16T20:19:35.333Z,21.19
2019-02-16T20:24:43.746Z,21.02
2019-02-16T20:45:17.969Z,30.82
2019-02-16T20:50:25.938Z,32.88
2019-02-16T21:00:42.585Z,21.32
2019-02-16T21:05:50.793Z,20.71
2019-02-16T21:16:07.166Z,21.86
2019-02-16T21:21:15.144Z,21.92
2019-02-16T21:57:13.038Z,21.13
2019-02-16T22:02:21.868Z,21.21
2019-02-16T22:22:54.660Z,20.40
2019-02-16T23:50:19.244Z,23.96
